createdAt,value
2018-03-19T00:00:42.857Z,49.82
2018-03-19T00:03:11.302Z,49.73
2018-03-19T00:05:39.712Z,50.05
2018-03-19T00:08:08.123Z,50.14
2018-03-19T00:10:36.579Z,49.55
2018-03-19T00:13:04.991Z,49.97
2018-03-19T00:15:33.399Z,49.73
2018-03-19T00:18:01.856Z,50.09
2018-03-19T00:20:30.267Z,49.94
2018-03-19T00:22:58.670Z,50.12
2018-03-19T00:25:27.114Z,49.74
2018-03-19T00:27:55.541Z,49.83
2018-03-19T00:30:23.960Z,50.26
2018-03-19T00:32:52.404Z,49.91
2018-03-19T00:35:20.811Z,50.60
2018-03-19T00:37:49.223Z,50.24
2018-03-19T00:40:17.698Z,50.60
2018-03-19T00:42:46.141Z,50.41
2018-03-19T00:45:14.549Z,50.79
2018-03-19T00:47:43.001Z,51.14
2018-03-19T00:50:11.428Z,51.08
2018-03-19T00:52:39.844Z,50.78
2018-03-19T00:55:08.308Z,50.36
2018-03-19T00:57:36.723Z,50.75
2018-03-19T01:00:05.176Z,50.82
2018-03-19T01:02:33.638Z,50.66
2018-03-19T01:05:02.062Z,50.42
2018-03-19T01:07:30.481Z,50.58
2018-03-19T01:09:58.940Z,50.59
2018-03-19T01:12:27.360Z,50.58
2018-03-19T01:14:55.762Z,50.32
2018-03-19T01:17:24.198Z,51.16
2018-03-19T01:19:52.593Z,51.16
2018-03-19T01:22:21.004Z,50.50
2018-03-19T01:24:49.450Z,51.06
2018-03-19T01:27:17.860Z,50.99
2018-03-19T01:29:46.253Z,51.37
2018-03-19T01:32:14.718Z,51.71
2018-03-19T01:34:43.129Z,51.33
2018-03-19T01:37:11.539Z,51.38
2018-03-19T01:39:40.002Z,51.25
2018-03-19T01:42:08.423Z,51.06
2018-03-19T01:44:36.836Z,51.68
2018-03-19T01:47:05.288Z,51.44
2018-03-19T01:49:33.714Z,51.57
2018-03-19T01:52:02.137Z,51.03
2018-03-19T01:54:30.616Z,51.52
2018-03-19T01:56:59.014Z,51.03
2018-03-19T01:59:27.414Z,50.98
2018-03-19T02:01:55.896Z,50.78
2018-03-19T02:04:24.310Z,50.38
2018-03-19T02:06:52.730Z,50.62
2018-03-19T02:09:21.451Z,50.61
2018-03-19T02:11:49.875Z,50.32
2018-03-19T02:14:18.301Z,50.46
2018-03-19T02:16:46.768Z,50.57
2018-03-19T02:19:15.197Z,50.49
2018-03-19T02:21:43.629Z,50.66
2018-03-19T02:24:12.096Z,50.38
2018-03-19T02:26:40.516Z,50.22
2018-03-19T02:29:08.944Z,50.65
2018-03-19T02:31:37.408Z,50.87
2018-03-19T02:34:05.834Z,50.64
2018-03-19T02:36:34.257Z,50.53
2018-03-19T02:39:02.739Z,50.54
2018-03-19T02:41:31.142Z,50.72
2018-03-19T02:43:59.555Z,50.32
2018-03-19T02:46:28.011Z,51.29
2018-03-19T02:48:56.443Z,50.57
2018-03-19T02:51:24.842Z,51.04
2018-03-19T02:53:53.323Z,51.27
2018-03-19T02:56:21.726Z,50.38
2018-03-19T02:58:50.129Z,51.02
2018-03-19T03:01:18.592Z,51.36
2018-03-19T03:03:47.025Z,51.53
2018-03-19T03:06:15.448Z,51.28
2018-03-19T03:08:43.918Z,51.13
2018-03-19T03:11:12.340Z,50.88
2018-03-19T03:13:41.527Z,51.02
2018-03-19T03:16:09.987Z,50.76
2018-03-19T03:18:38.398Z,50.92
2018-03-19T03:21:06.817Z,51.11
2018-03-19T03:23:35.274Z,50.96
2018-03-19T03:26:03.718Z,50.80
2018-03-19T03:28:32.134Z,50.42
2018-03-19T03:31:00.597Z,51.17
2018-03-19T03:33:29.048Z,51.41
2018-03-19T03:35:57.462Z,51.59
2018-03-19T03:38:25.968Z,51.47
2018-03-19T03:40:54.396Z,51.16
2018-03-19T03:43:22.820Z,50.85
2018-03-19T03:45:51.288Z,51.46
2018-03-19T03:48:19.713Z,51.50
2018-03-19T03:50:48.145Z,51.79
2018-03-19T03:53:16.629Z,52.09
2018-03-19T03:55:45.023Z,52.28
2018-03-19T03:58:13.449Z,52.29
2018-03-19T04:00:41.916Z,52.67
2018-03-19T04:03:10.357Z,52.51
2018-03-19T04:05:38.771Z,52.33
2018-03-19T04:08:07.227Z,52.87
2018-03-19T04:10:35.688Z,52.93
2018-03-19T04:13:04.130Z,53.25
2018-03-19T04:15:32.764Z,52.99
2018-03-19T04:18:01.191Z,53.17
2018-03-19T04:20:29.623Z,53.04
2018-03-19T04:22:58.096Z,53.08
2018-03-19T04:25:26.514Z,53.51
2018-03-19T04:27:54.936Z,53.20
2018-03-19T04:30:23.428Z,53.70
2018-03-19T04:32:51.842Z,53.58
2018-03-19T04:35:20.273Z,53.66
2018-03-19T04:37:48.710Z,53.93
2018-03-19T04:40:17.130Z,54.08
2018-03-19T04:42:45.548Z,54.21
2018-03-19T04:45:14.002Z,54.43
2018-03-19T04:47:42.415Z,54.27
2018-03-19T04:50:10.842Z,54.38
2018-03-19T04:52:39.301Z,54.73
2018-03-19T04:55:07.730Z,54.84
2018-03-19T04:57:36.156Z,54.84
2018-03-19T05:00:04.652Z,55.00
2018-03-19T05:02:33.078Z,55.16
2018-03-19T05:05:01.486Z,55.29
2018-03-19T05:07:29.957Z,55.28
2018-03-19T05:09:58.370Z,55.74
2018-03-19T05:12:26.780Z,55.69
2018-03-19T05:14:55.252Z,56.12
2018-03-19T05:17:23.673Z,56.06
2018-03-19T05:19:52.098Z,56.22
2018-03-19T05:22:20.653Z,56.31
2018-03-19T05:24:49.071Z,56.12
2018-03-19T05:27:17.496Z,56.21
2018-03-19T05:29:45.975Z,55.93
2018-03-19T05:32:14.402Z,56.33
2018-03-19T05:34:42.809Z,55.91
2018-03-19T05:37:11.538Z,55.94
2018-03-19T05:39:39.956Z,55.92
2018-03-19T05:42:08.384Z,55.99
2018-03-19T05:44:36.850Z,56.45
2018-03-19T05:47:05.261Z,55.78
2018-03-19T05:49:33.692Z,55.69
2018-03-19T05:52:02.154Z,55.68
2018-03-19T05:54:30.586Z,55.71
2018-03-19T05:56:59.016Z,55.91
2018-03-19T05:59:27.496Z,55.64
2018-03-19T06:01:55.919Z,55.69
2018-03-19T06:04:24.334Z,55.63
2018-03-19T06:06:52.804Z,55.45
2018-03-19T06:09:21.223Z,55.18
2018-03-19T06:11:49.657Z,54.85
2018-03-19T06:14:18.134Z,54.83
2018-03-19T06:16:46.546Z,54.90
2018-03-19T06:19:14.957Z,55.41
2018-03-19T06:21:43.414Z,55.08
2018-03-19T06:24:11.825Z,55.18
2018-03-19T06:26:40.250Z,55.38
2018-03-19T06:29:08.720Z,54.98
2018-03-19T06:31:37.139Z,55.26
2018-03-19T06:34:05.562Z,55.39
2018-03-19T06:36:34.035Z,55.45
2018-03-19T06:39:02.454Z,55.65
2018-03-19T06:41:30.886Z,55.29
2018-03-19T06:43:59.351Z,54.76
2018-03-19T06:46:27.776Z,54.91
2018-03-19T06:48:56.227Z,54.90
2018-03-19T06:51:24.688Z,54.22
2018-03-19T06:53:53.124Z,54.09
2018-03-19T06:56:21.538Z,54.43
2018-03-19T06:58:50.000Z,54.25
2018-03-19T07:01:18.411Z,54.31
2018-03-19T07:03:46.828Z,53.23
2018-03-19T07:06:15.292Z,53.54
2018-03-19T07:08:43.707Z,52.87
2018-03-19T07:11:12.138Z,53.27
2018-03-19T07:13:40.599Z,53.42
2018-03-19T07:16:09.203Z,52.46
2018-03-19T07:18:37.618Z,52.21
2018-03-19T07:21:06.082Z,51.58
2018-03-19T07:23:34.491Z,51.65
2018-03-19T07:26:02.902Z,51.62
2018-03-19T07:28:31.354Z,51.54
2018-03-19T07:30:59.771Z,51.38
2018-03-19T07:33:28.209Z,51.81
2018-03-19T07:35:56.662Z,51.10
2018-03-19T07:38:25.079Z,50.43
2018-03-19T07:40:53.549Z,50.95
2018-03-19T07:43:22.148Z,50.71
2018-03-19T07:45:50.498Z,50.65
2018-03-19T07:48:18.912Z,50.05
2018-03-19T07:50:47.375Z,49.01
2018-03-19T07:53:15.790Z,48.85
2018-03-19T07:55:44.207Z,49.57
2018-03-19T07:58:12.659Z,49.56
2018-03-19T08:00:41.074Z,48.91
2018-03-19T08:03:09.523Z,49.33
2018-03-19T08:05:37.999Z,47.27
2018-03-19T08:08:06.422Z,48.49
2018-03-19T08:10:34.838Z,48.16
2018-03-19T08:13:03.302Z,47.70
2018-03-19T08:15:31.725Z,46.34
2018-03-19T08:18:00.142Z,47.13
2018-03-19T08:20:28.607Z,46.70
2018-03-19T08:22:57.032Z,48.30
2018-03-19T08:25:25.441Z,47.23
2018-03-19T08:27:54.000Z,45.98
2018-03-19T08:30:22.414Z,47.12
2018-03-19T08:32:50.848Z,47.89
2018-03-19T08:35:19.314Z,47.54
2018-03-19T08:37:47.726Z,47.03
2018-03-19T08:40:16.138Z,47.39
2018-03-19T08:42:44.609Z,47.29
2018-03-19T08:45:13.028Z,46.39
2018-03-19T08:47:41.447Z,47.86
2018-03-19T08:50:09.908Z,47.77
2018-03-19T08:52:38.328Z,45.43
2018-03-19T08:55:06.756Z,46.74
2018-03-19T08:57:35.205Z,47.23
2018-03-19T09:00:03.668Z,45.65
2018-03-19T09:02:32.082Z,45.15
2018-03-19T09:05:00.554Z,45.15
2018-03-19T09:07:28.980Z,44.72
2018-03-19T09:09:57.397Z,43.98
2018-03-19T09:12:25.882Z,45.48
2018-03-19T09:14:54.303Z,44.94
2018-03-19T09:17:22.728Z,43.37
2018-03-19T09:19:51.203Z,43.18
2018-03-19T09:22:19.640Z,45.52
2018-03-19T09:24:48.053Z,45.41
2018-03-19T09:27:16.516Z,45.25
2018-03-19T09:29:44.955Z,44.69
2018-03-19T09:32:13.407Z,43.97
2018-03-19T09:34:41.862Z,44.15
2018-03-19T09:37:10.340Z,43.81
2018-03-19T09:39:38.756Z,43.41
2018-03-19T09:42:07.220Z,42.48
2018-03-19T09:44:35.640Z,42.77
2018-03-19T09:47:04.045Z,42.84
2018-03-19T09:49:32.490Z,42.61
2018-03-19T09:52:00.894Z,43.80
2018-03-19T09:54:29.294Z,43.60
2018-03-19T09:56:57.759Z,43.29
2018-03-19T09:59:26.163Z,42.54
2018-03-19T10:01:54.585Z,42.31
2018-03-19T10:04:23.062Z,42.05
2018-03-19T10:06:51.480Z,41.75
2018-03-19T10:09:19.911Z,41.37
2018-03-19T10:11:48.390Z,42.61
2018-03-19T10:14:16.809Z,43.31
2018-03-19T10:16:45.219Z,42.36
2018-03-19T10:19:13.657Z,43.13
2018-03-19T10:21:42.111Z,43.04
2018-03-19T10:24:10.543Z,42.47
2018-03-19T10:26:39.006Z,40.16
2018-03-19T10:29:07.428Z,38.88
2018-03-19T10:31:35.835Z,38.44
2018-03-19T10:34:04.309Z,41.46
2018-03-19T10:36:32.724Z,40.63
2018-03-19T10:39:01.129Z,40.06
2018-03-19T10:41:29.585Z,41.93
2018-03-19T10:43:58.036Z,41.36
2018-03-19T10:46:26.456Z,40.77
2018-03-19T10:48:54.906Z,39.27
2018-03-19T10:51:23.310Z,39.35
2018-03-19T10:53:51.716Z,41.52
2018-03-19T10:56:20.190Z,40.57
2018-03-19T10:58:48.612Z,38.07
2018-03-19T11:01:22.745Z,38.74
2018-03-19T11:03:56.791Z,37.06
2018-03-19T11:06:30.837Z,36.58
2018-03-19T11:09:04.894Z,37.28
2018-03-19T11:11:33.345Z,36.45
2018-03-19T11:14:01.756Z,39.71
2018-03-19T11:16:30.166Z,39.42
2018-03-19T11:18:58.627Z,37.15
2018-03-19T11:21:27.034Z,35.84
2018-03-19T11:23:55.445Z,36.12
2018-03-19T11:26:23.897Z,33.56
2018-03-19T11:28:52.294Z,34.61
2018-03-19T11:31:20.698Z,35.58
2018-03-19T11:33:49.194Z,35.34
2018-03-19T11:36:17.583Z,35.14
2018-03-19T11:38:45.988Z,34.61
2018-03-19T11:41:14.441Z,35.76
2018-03-19T11:43:42.856Z,35.69
2018-03-19T11:46:11.272Z,36.30
2018-03-19T11:48:39.727Z,36.97
2018-03-19T11:51:08.122Z,37.05
2018-03-19T11:53:36.536Z,36.03
2018-03-19T11:56:05.093Z,35.75
2018-03-19T11:58:33.507Z,33.94
2018-03-19T12:01:01.898Z,34.78
2018-03-19T12:03:30.350Z,35.06
2018-03-19T12:05:58.762Z,35.67
2018-03-19T12:08:27.168Z,36.32
2018-03-19T12:10:55.618Z,35.23
2018-03-19T12:13:24.034Z,35.65
2018-03-19T12:15:52.430Z,36.25
2018-03-19T12:18:20.887Z,35.40
2018-03-19T12:20:49.286Z,34.50
2018-03-19T12:23:17.720Z,34.39
2018-03-19T12:25:46.182Z,34.36
2018-03-19T12:28:14.608Z,35.44
2018-03-19T12:30:43.022Z,34.80
2018-03-19T12:33:11.471Z,34.10
2018-03-19T12:35:39.920Z,33.38
2018-03-19T12:38:08.335Z,32.86
2018-03-19T12:40:36.796Z,31.72
2018-03-19T12:43:05.201Z,31.92
2018-03-19T12:45:33.603Z,32.63
2018-03-19T12:48:02.074Z,32.97
2018-03-19T12:50:30.498Z,32.67
2018-03-19T12:52:58.903Z,32.88
2018-03-19T12:55:27.349Z,32.34
2018-03-19T12:57:55.757Z,33.02
2018-03-19T13:00:24.169Z,33.47
2018-03-19T13:02:52.624Z,33.13
2018-03-19T13:05:21.040Z,33.37
2018-03-19T13:07:49.448Z,33.85
2018-03-19T13:10:17.903Z,33.54
2018-03-19T13:12:46.315Z,33.15
2018-03-19T13:15:14.719Z,33.30
2018-03-19T13:17:43.206Z,33.24
2018-03-19T13:20:11.615Z,32.80
2018-03-19T13:22:40.013Z,32.65
2018-03-19T13:25:08.454Z,33.72
2018-03-19T13:27:36.864Z,34.17
2018-03-19T13:30:05.301Z,32.14
2018-03-19T13:32:33.748Z,31.58
2018-03-19T13:35:02.152Z,32.53
2018-03-19T13:37:30.560Z,32.14
2018-03-19T13:39:59.021Z,33.27
2018-03-19T13:42:27.426Z,33.39
2018-03-19T13:44:56.772Z,32.89
2018-03-19T13:47:25.211Z,32.63
2018-03-19T13:49:53.606Z,32.05
2018-03-19T13:52:22.023Z,32.89
2018-03-19T13:54:50.467Z,31.18
2018-03-19T13:57:18.854Z,32.13
2018-03-19T13:59:47.292Z,31.38
2018-03-19T14:02:15.730Z,34.14
2018-03-19T14:04:44.134Z,32.51
2018-03-19T14:07:12.570Z,31.62
2018-03-19T14:09:41.007Z,31.61
2018-03-19T14:12:09.398Z,33.17
2018-03-19T14:14:37.807Z,32.22
2018-03-19T14:17:06.334Z,32.59
2018-03-19T14:19:34.710Z,31.98
2018-03-19T14:22:03.139Z,31.11
2018-03-19T14:24:31.594Z,31.85
2018-03-19T14:27:00.000Z,32.52
2018-03-19T14:29:28.398Z,33.72
2018-03-19T14:31:56.838Z,33.21
2018-03-19T14:34:25.243Z,32.42
2018-03-19T14:36:53.649Z,32.69
2018-03-19T14:39:22.082Z,32.16
2018-03-19T14:41:50.482Z,33.10
2018-03-19T14:44:18.876Z,33.44
2018-03-19T14:46:47.310Z,32.02
2018-03-19T14:49:15.724Z,33.17
2018-03-19T14:51:44.904Z,33.33
2018-03-19T14:54:13.355Z,34.52
2018-03-19T14:56:41.746Z,33.83
2018-03-19T14:59:10.151Z,33.55
2018-03-19T15:01:38.616Z,34.67
2018-03-19T15:04:07.021Z,34.51
2018-03-19T15:06:35.436Z,34.21
2018-03-19T15:09:03.948Z,35.69
2018-03-19T15:11:32.353Z,35.15
2018-03-19T15:14:00.746Z,35.02
2018-03-19T15:16:29.396Z,35.54
2018-03-19T15:18:57.803Z,35.17
2018-03-19T15:21:26.193Z,36.77
2018-03-19T15:23:54.625Z,36.47
2018-03-19T15:26:23.044Z,35.75
2018-03-19T15:28:51.459Z,35.90
2018-03-19T15:31:19.919Z,37.10
2018-03-19T15:33:48.321Z,37.10
2018-03-19T15:36:16.718Z,37.34
2018-03-19T15:38:45.180Z,36.22
2018-03-19T15:41:13.596Z,37.24
2018-03-19T15:43:41.995Z,37.26
2018-03-19T15:46:10.444Z,36.77
2018-03-19T15:48:38.842Z,37.67
2018-03-19T15:51:07.234Z,38.05
2018-03-19T15:53:35.701Z,36.25
2018-03-19T15:56:04.138Z,36.85
2018-03-19T15:58:32.540Z,36.88
2018-03-19T16:01:01.198Z,37.46
2018-03-19T16:03:29.595Z,37.48
2018-03-19T16:05:57.999Z,37.11
2018-03-19T16:08:26.430Z,37.87
2018-03-19T16:10:54.860Z,38.82
2018-03-19T16:13:23.259Z,38.53
2018-03-19T16:15:51.707Z,38.13
2018-03-19T16:18:20.111Z,38.73
2018-03-19T16:20:48.525Z,39.05
2018-03-19T16:23:16.991Z,39.03
2018-03-19T16:25:45.401Z,39.88
2018-03-19T16:28:13.802Z,38.68
2018-03-19T16:30:42.252Z,39.63
2018-03-19T16:33:10.668Z,39.46
2018-03-19T16:35:39.074Z,40.29
2018-03-19T16:38:07.526Z,40.03
2018-03-19T16:40:35.935Z,40.55
2018-03-19T16:43:04.338Z,39.74
2018-03-19T16:45:33.128Z,40.94
2018-03-19T16:48:01.566Z,40.60
2018-03-19T16:50:29.954Z,39.75
2018-03-19T16:52:58.391Z,41.03
2018-03-19T16:55:26.782Z,41.37
2018-03-19T16:57:55.173Z,41.04
2018-03-19T17:00:23.619Z,41.64
2018-03-19T17:02:52.030Z,41.86
2018-03-19T17:05:20.434Z,42.53
2018-03-19T17:07:49.077Z,42.75
2018-03-19T17:10:17.468Z,41.99
2018-03-19T17:12:45.906Z,41.99
2018-03-19T17:15:14.355Z,42.58
2018-03-19T17:17:42.750Z,43.27
2018-03-19T17:20:11.146Z,43.40
2018-03-19T17:22:39.605Z,43.74
2018-03-19T17:25:08.031Z,44.39
2018-03-19T17:27:36.448Z,44.93
2018-03-19T17:30:04.916Z,45.49
2018-03-19T17:32:33.328Z,45.50
2018-03-19T17:35:01.769Z,45.72
2018-03-19T17:37:30.201Z,46.02
2018-03-19T17:39:58.594Z,46.51
2018-03-19T17:42:26.989Z,46.65
2018-03-19T17:44:55.430Z,46.82
2018-03-19T17:47:23.839Z,46.79
2018-03-19T17:49:52.234Z,47.39
2018-03-19T17:52:20.691Z,47.63
2018-03-19T17:54:49.099Z,47.61
2018-03-19T17:57:17.508Z,46.94
2018-03-19T17:59:45.968Z,47.62
2018-03-19T18:02:14.374Z,47.63
2018-03-19T18:04:42.766Z,47.67
2018-03-19T18:07:11.313Z,47.48
2018-03-19T18:09:39.702Z,47.53
2018-03-19T18:12:08.113Z,47.75
2018-03-19T18:14:36.551Z,48.39
2018-03-19T18:17:04.954Z,48.26
2018-03-19T18:19:33.369Z,48.35
2018-03-19T18:22:01.824Z,48.37
2018-03-19T18:24:30.229Z,48.93
2018-03-19T18:26:58.649Z,48.96
2018-03-19T18:29:27.258Z,49.35
2018-03-19T18:31:55.680Z,49.49
2018-03-19T18:34:24.090Z,49.02
2018-03-19T18:36:52.575Z,49.32
2018-03-19T18:39:20.980Z,49.44
2018-03-19T18:41:49.397Z,49.42
2018-03-19T18:44:17.877Z,49.81
2018-03-19T18:46:46.301Z,50.08
2018-03-19T18:49:14.708Z,50.67
2018-03-19T18:51:43.161Z,50.74
2018-03-19T18:54:11.572Z,50.93
2018-03-19T18:56:39.996Z,50.93
2018-03-19T18:59:08.452Z,51.03
2018-03-19T19:01:36.856Z,50.66
2018-03-19T19:04:05.296Z,50.98
2018-03-19T19:06:33.740Z,50.93
2018-03-19T19:09:02.154Z,51.42
2018-03-19T19:11:30.564Z,51.30
2018-03-19T19:13:59.064Z,51.34
2018-03-19T19:16:27.473Z,51.22
2018-03-19T19:18:55.891Z,51.57
2018-03-19T19:21:24.392Z,51.89
2018-03-19T19:23:52.814Z,52.72
2018-03-19T19:26:21.245Z,52.90
2018-03-19T19:28:49.729Z,53.90
2018-03-19T19:31:18.152Z,53.32
2018-03-19T19:33:46.584Z,53.94
2018-03-19T19:36:15.048Z,53.91
2018-03-19T19:38:43.472Z,54.52
2018-03-19T19:41:11.881Z,54.57
2018-03-19T19:43:40.344Z,55.14
2018-03-19T19:46:08.785Z,55.14
2018-03-19T19:48:37.210Z,54.52
2018-03-19T19:51:05.941Z,54.75
2018-03-19T19:53:34.358Z,54.97
2018-03-19T19:56:02.774Z,55.11
2018-03-19T19:58:31.226Z,55.30
2018-03-19T20:00:59.652Z,55.07
2018-03-19T20:03:28.059Z,54.49
2018-03-19T20:05:56.513Z,54.24
2018-03-19T20:08:24.931Z,54.46
2018-03-19T20:10:53.369Z,53.59
2018-03-19T20:13:21.850Z,53.58
2018-03-19T20:15:50.262Z,53.82
2018-03-19T20:18:18.681Z,53.80
2018-03-19T20:20:47.156Z,53.42
2018-03-19T20:23:15.566Z,53.83
2018-03-19T20:25:43.984Z,54.72
2018-03-19T20:28:12.455Z,54.43
2018-03-19T20:30:40.870Z,54.91
2018-03-19T20:33:09.291Z,54.44
2018-03-19T20:35:37.743Z,54.78
2018-03-19T20:38:06.150Z,55.12
2018-03-19T20:40:34.558Z,55.33
2018-03-19T20:43:03.024Z,55.72
2018-03-19T20:45:31.439Z,55.76
2018-03-19T20:47:59.842Z,55.59
2018-03-19T20:50:28.303Z,55.62
2018-03-19T20:52:56.717Z,55.58
2018-03-19T20:55:25.134Z,55.11
2018-03-19T20:57:53.596Z,55.00
2018-03-19T21:00:22.006Z,55.08
2018-03-19T21:02:50.478Z,55.07
2018-03-19T21:05:18.924Z,55.20
2018-03-19T21:07:47.345Z,55.03
2018-03-19T21:10:15.767Z,55.33
2018-03-19T21:12:44.227Z,55.00
2018-03-19T21:15:12.639Z,55.36
2018-03-19T21:17:41.062Z,55.52
2018-03-19T21:20:09.515Z,55.92
2018-03-19T21:22:37.917Z,56.29
2018-03-19T21:25:06.338Z,56.30
2018-03-19T21:27:34.806Z,56.37
2018-03-19T21:30:03.252Z,56.67
2018-03-19T21:32:31.659Z,57.24
2018-03-19T21:35:00.144Z,57.13
2018-03-19T21:37:28.554Z,57.14
2018-03-19T21:39:56.972Z,57.24
2018-03-19T21:42:25.423Z,57.73
2018-03-19T21:44:53.830Z,57.65
2018-03-19T21:47:22.257Z,57.64
2018-03-19T21:49:50.730Z,57.89
2018-03-19T21:52:19.159Z,58.13
2018-03-19T21:54:47.575Z,58.39
2018-03-19T21:57:16.036Z,58.82
2018-03-19T21:59:44.461Z,58.03
2018-03-19T22:02:12.884Z,58.15
2018-03-19T22:04:41.353Z,58.25
2018-03-19T22:07:09.762Z,57.99
2018-03-19T22:09:38.170Z,58.26
2018-03-19T22:12:06.628Z,58.23
2018-03-19T22:14:35.057Z,58.60
2018-03-19T22:17:03.470Z,58.10
2018-03-19T22:19:31.923Z,58.22
2018-03-19T22:22:00.347Z,57.98
2018-03-19T22:24:28.759Z,57.65
2018-03-19T22:26:57.234Z,57.70
2018-03-19T22:29:25.642Z,57.75
2018-03-19T22:31:54.038Z,57.44
2018-03-19T22:34:22.680Z,57.82
2018-03-19T22:36:51.104Z,57.67
2018-03-19T22:39:19.545Z,57.73
2018-03-19T22:41:47.990Z,57.98
2018-03-19T22:44:16.399Z,57.97
2018-03-19T22:46:44.802Z,58.00
2018-03-19T22:49:13.251Z,57.15
2018-03-19T22:51:41.668Z,56.58
2018-03-19T22:54:10.074Z,57.32
2018-03-19T22:56:38.534Z,59.20
2018-03-19T22:59:06.952Z,60.44
2018-03-19T23:01:35.368Z,60.00
2018-03-19T23:04:03.840Z,61.31
2018-03-19T23:06:32.255Z,60.78
2018-03-19T23:09:00.680Z,62.03
2018-03-19T23:11:29.162Z,62.17
2018-03-19T23:13:57.573Z,62.04
2018-03-19T23:16:25.997Z,62.18
2018-03-19T23:18:54.461Z,61.67
2018-03-19T23:21:22.870Z,61.60
2018-03-19T23:23:51.278Z,61.26
2018-03-19T23:26:19.732Z,60.62
2018-03-19T23:28:48.156Z,60.91
2018-03-19T23:31:16.566Z,60.91
2018-03-19T23:33:45.006Z,60.51
2018-03-19T23:36:13.410Z,60.35
2018-03-19T23:38:41.835Z,60.36
2018-03-19T23:41:10.283Z,60.14
2018-03-19T23:43:38.697Z,60.11
2018-03-19T23:46:07.106Z,60.03
2018-03-19T23:48:35.564Z,59.73
2018-03-19T23:51:03.980Z,59.93
2018-03-19T23:53:32.383Z,59.18
2018-03-19T23:56:00.835Z,59.34
2018-03-19T23:58:29.239Z,59.21
